createdAt,value
2023-10-29T00:11:57.816Z,24.30
2023-10-29T00:20:24.830Z,27.30
2023-10-29T00:28:53.048Z,28.80
2023-10-29T00:37:19.618Z,25.60
2023-10-29T00:46:03.757Z,24.30
2023-10-29T00:54:42.757Z,28.20
2023-10-29T01:03:17.820Z,30.30
2023-10-29T01:11:49.537Z,26.60
2023-10-29T01:20:20.547Z,24.80
2023-10-29T01:28:50.945Z,24.70
2023-10-29T01:37:21.848Z,21.10
2023-10-29T01:45:48.529Z,19.80
2023-10-29T01:54:19.882Z,27.00
2023-10-29T02:02:47.328Z,27.40
2023-10-29T02:11:12.021Z,24.20
2023-10-29T02:19:40.004Z,22.80
2023-10-29T02:28:10.929Z,24.60
2023-10-29T02:37:14.751Z,19.20
2023-10-29T02:46:06.840Z,23.70
2023-10-29T02:54:52.520Z,19.30
2023-10-29T03:03:38.343Z,21.50
2023-10-29T03:12:22.821Z,17.30
2023-10-29T03:21:56.242Z,15.40
2023-10-29T03:30:47.206Z,16.70
2023-10-29T03:39:20.303Z,15.20
2023-10-29T03:48:17.714Z,17.80
2023-10-29T03:56:51.901Z,12.90
2023-10-29T04:05:24.135Z,18.10
2023-10-29T04:13:56.952Z,14.30
2023-10-29T04:22:24.798Z,13.20
2023-10-29T04:30:57.298Z,15.40
2023-10-29T04:39:29.480Z,16.60
2023-10-29T04:47:57.191Z,13.30
2023-10-29T04:56:21.627Z,12.70
2023-10-29T05:04:49.163Z,11.10
2023-10-29T05:13:53.018Z,13.70
2023-10-29T05:32:50.580Z,12.90
2023-10-29T05:42:27.518Z,12.00
2023-10-29T05:51:42.471Z,11.30
2023-10-29T06:00:50.706Z,15.80
2023-10-29T06:09:59.600Z,16.90
2023-10-29T06:18:23.529Z,13.80
2023-10-29T06:27:01.175Z,25.60
2023-10-29T06:36:14.242Z,14.40
2023-10-29T06:45:36.816Z,13.20
2023-10-29T06:54:38.357Z,21.50
2023-10-29T07:03:04.853Z,12.70
2023-10-29T07:11:30.657Z,15.00
2023-10-29T07:19:54.322Z,16.40
2023-10-29T07:28:20.597Z,14.50
2023-10-29T07:36:47.959Z,54.50
2023-10-29T07:45:12.238Z,14.60
2023-10-29T07:53:36.346Z,22.40
2023-10-29T08:02:04.318Z,17.00
2023-10-29T08:10:28.566Z,27.10
2023-10-29T08:18:54.037Z,55.40
2023-10-29T08:27:21.316Z,16.00
2023-10-29T08:35:46.569Z,15.10
2023-10-29T08:44:13.920Z,12.40
2023-10-29T08:52:39.289Z,20.70
2023-10-29T09:01:07.749Z,11.60
2023-10-29T09:09:34.729Z,9.30
2023-10-29T09:18:02.708Z,25.30
2023-10-29T09:26:27.595Z,12.00
2023-10-29T09:34:53.616Z,9.70
2023-10-29T09:43:20.463Z,8.60
2023-10-29T09:51:48.920Z,9.60
2023-10-29T10:00:18.658Z,7.30
2023-10-29T10:08:43.633Z,8.50
2023-10-29T10:17:10.305Z,5.80
2023-10-29T10:25:35.361Z,6.40
2023-10-29T10:34:13.116Z,8.00
2023-10-29T10:42:37.463Z,12.90
2023-10-29T10:51:05.959Z,6.00
2023-10-29T10:59:31.082Z,6.50
2023-10-29T11:08:03.031Z,7.50
2023-10-29T11:16:27.035Z,4.80
2023-10-29T11:25:31.874Z,6.40
2023-10-29T11:34:38.606Z,7.80
2023-10-29T11:43:18.899Z,5.60
2023-10-29T11:52:04.753Z,45.10
2023-10-29T12:00:45.685Z,8.80
2023-10-29T12:09:23.847Z,5.40
2023-10-29T12:17:48.909Z,3.30
2023-10-29T12:26:16.284Z,6.10
2023-10-29T12:35:08.757Z,2.30
2023-10-29T12:43:48.628Z,5.50
2023-10-29T12:52:15.728Z,2.60
2023-10-29T13:00:39.623Z,9.00
2023-10-29T13:09:03.172Z,2.30
2023-10-29T13:17:27.912Z,4.50
2023-10-29T13:25:57.295Z,3.50
2023-10-29T13:34:22.574Z,219.80
2023-10-29T13:42:47.782Z,10.70
2023-10-29T13:51:12.026Z,6.80
2023-10-29T13:59:36.635Z,5.10
2023-10-29T14:08:01.903Z,3.60
2023-10-29T14:16:39.505Z,5.60
2023-10-29T14:25:07.202Z,17.00
2023-10-29T14:33:32.215Z,4.10
2023-10-29T14:41:59.422Z,6.20
2023-10-29T14:50:24.696Z,17.40
2023-10-29T14:58:49.567Z,13.80
2023-10-29T15:07:13.863Z,33.10
2023-10-29T15:15:39.312Z,5.20
2023-10-29T15:24:05.611Z,9.00
2023-10-29T15:32:29.369Z,7.10
2023-10-29T15:40:53.051Z,5.90
2023-10-29T15:49:17.211Z,5.60
2023-10-29T15:57:43.751Z,67.80
2023-10-29T16:06:10.040Z,5.40
2023-10-29T16:14:37.843Z,8.70
2023-10-29T16:23:02.885Z,282.80
2023-10-29T16:31:26.591Z,912.60
2023-10-29T16:39:50.427Z,1563.60
2023-10-29T16:48:15.250Z,485.50
2023-10-29T16:56:40.155Z,847.50
2023-10-29T17:05:07.173Z,631.60
2023-10-29T17:13:31.491Z,704.80
2023-10-29T17:21:55.049Z,744.90
2023-10-29T17:30:19.888Z,665.60
2023-10-29T17:38:45.424Z,428.70
2023-10-29T17:47:12.699Z,112.90
2023-10-29T17:55:36.509Z,123.20
2023-10-29T18:04:01.036Z,54.00
2023-10-29T18:12:24.907Z,48.70
2023-10-29T18:20:49.939Z,20.50
2023-10-29T18:29:14.038Z,40.60
2023-10-29T18:37:42.488Z,18.20
2023-10-29T18:46:10.346Z,14.50
2023-10-29T18:54:36.263Z,13.50
2023-10-29T19:03:02.078Z,9.60
2023-10-29T19:11:28.205Z,12.20
2023-10-29T19:19:51.576Z,16.40
2023-10-29T19:28:17.471Z,73.80
2023-10-29T19:36:42.984Z,20.00
2023-10-29T19:45:10.035Z,14.90
2023-10-29T19:53:35.649Z,10.70
2023-10-29T20:02:02.260Z,19.70
2023-10-29T20:10:27.153Z,19.30
2023-10-29T20:18:52.571Z,11.30
2023-10-29T20:27:16.876Z,11.50
2023-10-29T20:35:42.639Z,13.20
2023-10-29T20:44:10.349Z,13.10
2023-10-29T20:52:36.039Z,13.20
2023-10-29T21:01:03.305Z,14.40
2023-10-29T21:09:28.394Z,15.10
2023-10-29T21:17:51.967Z,12.20
2023-10-29T21:26:15.960Z,12.60
2023-10-29T21:34:39.010Z,13.50
2023-10-29T21:43:03.421Z,13.90
2023-10-29T21:51:27.848Z,9.10
2023-10-29T21:59:52.009Z,14.20
2023-10-29T22:08:17.814Z,12.80
2023-10-29T22:16:43.578Z,10.70
2023-10-29T22:25:10.280Z,22.10
2023-10-29T22:33:38.247Z,9.80
2023-10-29T22:42:03.933Z,11.80
2023-10-29T22:50:27.943Z,11.30
2023-10-29T22:58:53.089Z,9.80
2023-10-29T23:07:17.266Z,14.70
2023-10-29T23:15:40.503Z,12.10
2023-10-29T23:24:08.416Z,12.30
2023-10-29T23:32:32.416Z,13.50
2023-10-29T23:41:00.299Z,10.10
2023-10-29T23:49:25.926Z,10.00
2023-10-29T23:57:50.967Z,11.30
